sensor_id;sensor_type;location;lat;lon;timestamp;P1;durP1;ratioP1;P2;durP2;ratioP2
21432;SDS011;18592;49.708;10.900;2024-02-21T00:00:12;14.55;;;7.40;;
21432;SDS011;18592;49.708;10.900;2024-02-21T00:02:13;16.35;;;8.85;;
21432;SDS011;18592;49.708;10.900;2024-02-21T00:04:13;14.77;;;9.13;;
21432;SDS011;18592;49.708;10.900;2024-02-21T00:06:14;16.25;;;8.52;;
21432;SDS011;18592;49.708;10.900;2024-02-21T00:08:14;19.60;;;9.05;;
21432;SDS011;18592;49.708;10.900;2024-02-21T00:10:16;17.27;;;9.32;;
21432;SDS011;18592;49.708;10.900;2024-02-21T00:12:16;18.23;;;10.40;;
21432;SDS011;18592;49.708;10.900;2024-02-21T00:14:16;18.50;;;10.50;;
21432;SDS011;18592;49.708;10.900;2024-02-21T00:16:17;19.35;;;10.63;;
21432;SDS011;18592;49.708;10.900;2024-02-21T00:18:17;21.23;;;11.60;;
21432;SDS011;18592;49.708;10.900;2024-02-21T00:20:17;22.23;;;11.73;;
21432;SDS011;18592;49.708;10.900;2024-02-21T00:22:18;20.45;;;10.35;;
21432;SDS011;18592;49.708;10.900;2024-02-21T00:24:18;20.38;;;10.77;;
21432;SDS011;18592;49.708;10.900;2024-02-21T00:26:19;23.63;;;11.40;;
21432;SDS011;18592;49.708;10.900;2024-02-21T00:28:19;22.77;;;11.52;;
21432;SDS011;18592;49.708;10.900;2024-02-21T00:30:19;25.58;;;14.40;;
21432;SDS011;18592;49.708;10.900;2024-02-21T00:32:20;29.48;;;16.05;;
21432;SDS011;18592;49.708;10.900;2024-02-21T00:34:21;29.08;;;14.73;;
21432;SDS011;18592;49.708;10.900;2024-02-21T00:36:21;24.75;;;14.88;;
21432;SDS011;18592;49.708;10.900;2024-02-21T00:38:36;27.90;;;14.80;;
21432;SDS011;18592;49.708;10.900;2024-02-21T00:40:37;25.30;;;14.45;;
21432;SDS011;18592;49.708;10.900;2024-02-21T00:42:37;21.70;;;13.45;;
21432;SDS011;18592;49.708;10.900;2024-02-21T00:44:37;22.70;;;13.05;;
21432;SDS011;18592;49.708;10.900;2024-02-21T00:46:38;20.70;;;10.93;;
21432;SDS011;18592;49.708;10.900;2024-02-21T00:48:38;23.02;;;12.48;;
21432;SDS011;18592;49.708;10.900;2024-02-21T00:50:39;22.77;;;13.57;;
21432;SDS011;18592;49.708;10.900;2024-02-21T00:52:39;25.52;;;14.18;;
21432;SDS011;18592;49.708;10.900;2024-02-21T00:54:43;26.50;;;14.23;;
21432;SDS011;18592;49.708;10.900;2024-02-21T00:56:43;23.35;;;12.52;;
21432;SDS011;18592;49.708;10.900;2024-02-21T00:58:44;20.80;;;11.98;;
21432;SDS011;18592;49.708;10.900;2024-02-21T01:00:44;17.50;;;10.52;;
21432;SDS011;18592;49.708;10.900;2024-02-21T01:02:51;16.73;;;9.20;;
21432;SDS011;18592;49.708;10.900;2024-02-21T01:04:54;17.27;;;9.32;;
21432;SDS011;18592;49.708;10.900;2024-02-21T01:07:04;17.35;;;9.23;;
21432;SDS011;18592;49.708;10.900;2024-02-21T01:09:04;17.50;;;8.93;;
21432;SDS011;18592;49.708;10.900;2024-02-21T01:11:05;19.25;;;9.70;;
21432;SDS011;18592;49.708;10.900;2024-02-21T01:13:05;24.40;;;13.30;;
21432;SDS011;18592;49.708;10.900;2024-02-21T01:15:07;19.95;;;12.15;;
21432;SDS011;18592;49.708;10.900;2024-02-21T01:17:08;26.65;;;13.00;;
21432;SDS011;18592;49.708;10.900;2024-02-21T01:19:11;25.75;;;14.60;;
21432;SDS011;18592;49.708;10.900;2024-02-21T01:21:12;25.45;;;12.95;;
21432;SDS011;18592;49.708;10.900;2024-02-21T01:23:12;20.08;;;11.55;;
21432;SDS011;18592;49.708;10.900;2024-02-21T01:25:12;16.83;;;9.85;;
21432;SDS011;18592;49.708;10.900;2024-02-21T01:27:13;18.80;;;10.32;;
21432;SDS011;18592;49.708;10.900;2024-02-21T01:29:13;24.33;;;13.70;;
21432;SDS011;18592;49.708;10.900;2024-02-21T01:31:13;28.63;;;16.23;;
21432;SDS011;18592;49.708;10.900;2024-02-21T01:33:15;24.52;;;13.88;;
21432;SDS011;18592;49.708;10.900;2024-02-21T01:35:16;27.90;;;15.18;;
21432;SDS011;18592;49.708;10.900;2024-02-21T01:37:16;32.78;;;18.75;;
21432;SDS011;18592;49.708;10.900;2024-02-21T01:39:16;28.10;;;15.82;;
21432;SDS011;18592;49.708;10.900;2024-02-21T01:41:17;27.85;;;14.68;;
21432;SDS011;18592;49.708;10.900;2024-02-21T01:43:18;29.90;;;16.55;;
21432;SDS011;18592;49.708;10.900;2024-02-21T01:45:20;31.95;;;19.05;;
21432;SDS011;18592;49.708;10.900;2024-02-21T01:47:20;36.15;;;21.33;;
21432;SDS011;18592;49.708;10.900;2024-02-21T01:49:21;34.85;;;21.35;;
21432;SDS011;18592;49.708;10.900;2024-02-21T01:51:22;35.47;;;19.67;;
21432;SDS011;18592;49.708;10.900;2024-02-21T01:53:30;28.85;;;17.15;;
21432;SDS011;18592;49.708;10.900;2024-02-21T01:55:35;21.27;;;12.32;;
21432;SDS011;18592;49.708;10.900;2024-02-21T01:57:35;23.10;;;11.38;;
21432;SDS011;18592;49.708;10.900;2024-02-21T01:59:38;21.35;;;11.98;;
21432;SDS011;18592;49.708;10.900;2024-02-21T02:01:39;20.50;;;12.32;;
21432;SDS011;18592;49.708;10.900;2024-02-21T02:03:40;28.00;;;15.70;;
21432;SDS011;18592;49.708;10.900;2024-02-21T02:05:40;29.95;;;17.85;;
21432;SDS011;18592;49.708;10.900;2024-02-21T02:07:56;32.00;;;18.58;;
21432;SDS011;18592;49.708;10.900;2024-02-21T02:09:56;34.72;;;18.30;;
21432;SDS011;18592;49.708;10.900;2024-02-21T02:11:56;34.33;;;20.13;;
21432;SDS011;18592;49.708;10.900;2024-02-21T02:13:58;29.40;;;17.38;;
21432;SDS011;18592;49.708;10.900;2024-02-21T02:15:58;25.85;;;14.27;;
21432;SDS011;18592;49.708;10.900;2024-02-21T02:17:59;22.73;;;12.50;;
21432;SDS011;18592;49.708;10.900;2024-02-21T02:19:59;23.63;;;12.60;;
21432;SDS011;18592;49.708;10.900;2024-02-21T02:22:10;26.38;;;15.02;;
21432;SDS011;18592;49.708;10.900;2024-02-21T02:24:19;23.00;;;12.93;;
21432;SDS011;18592;49.708;10.900;2024-02-21T02:26:23;24.10;;;13.45;;
21432;SDS011;18592;49.708;10.900;2024-02-21T02:28:24;25.85;;;14.32;;
21432;SDS011;18592;49.708;10.900;2024-02-21T02:30:24;28.38;;;15.65;;
21432;SDS011;18592;49.708;10.900;2024-02-21T02:32:25;29.38;;;17.17;;
21432;SDS011;18592;49.708;10.900;2024-02-21T02:34:30;28.55;;;15.43;;
21432;SDS011;18592;49.708;10.900;2024-02-21T02:36:34;25.30;;;13.68;;
21432;SDS011;18592;49.708;10.900;2024-02-21T02:38:34;23.30;;;14.68;;
21432;SDS011;18592;49.708;10.900;2024-02-21T02:40:35;22.13;;;12.10;;
21432;SDS011;18592;49.708;10.900;2024-02-21T02:42:50;24.83;;;14.50;;
21432;SDS011;18592;49.708;10.900;2024-02-21T02:44:51;26.60;;;13.57;;
21432;SDS011;18592;49.708;10.900;2024-02-21T02:46:51;25.10;;;14.73;;
21432;SDS011;18592;49.708;10.900;2024-02-21T02:48:51;19.60;;;11.18;;
21432;SDS011;18592;49.708;10.900;2024-02-21T02:50:52;23.33;;;11.95;;
21432;SDS011;18592;49.708;10.900;2024-02-21T02:52:53;26.30;;;15.20;;
21432;SDS011;18592;49.708;10.900;2024-02-21T02:54:54;25.98;;;15.13;;
21432;SDS011;18592;49.708;10.900;2024-02-21T02:56:55;27.67;;;15.60;;
21432;SDS011;18592;49.708;10.900;2024-02-21T02:58:56;23.63;;;14.02;;
21432;SDS011;18592;49.708;10.900;2024-02-21T03:00:57;22.50;;;12.85;;
21432;SDS011;18592;49.708;10.900;2024-02-21T03:02:57;26.45;;;15.45;;
21432;SDS011;18592;49.708;10.900;2024-02-21T03:04:57;31.27;;;19.10;;
21432;SDS011;18592;49.708;10.900;2024-02-21T03:06:58;29.85;;;16.83;;
21432;SDS011;18592;49.708;10.900;2024-02-21T03:08:58;26.60;;;16.65;;
21432;SDS011;18592;49.708;10.900;2024-02-21T03:11:00;32.38;;;18.80;;
21432;SDS011;18592;49.708;10.900;2024-02-21T03:13:00;32.30;;;18.27;;
21432;SDS011;18592;49.708;10.900;2024-02-21T03:15:00;42.47;;;23.88;;
21432;SDS011;18592;49.708;10.900;2024-02-21T03:17:01;39.95;;;23.48;;
21432;SDS011;18592;49.708;10.900;2024-02-21T03:19:02;37.72;;;22.55;;
21432;SDS011;18592;49.708;10.900;2024-02-21T03:21:03;34.10;;;20.73;;
21432;SDS011;18592;49.708;10.900;2024-02-21T03:23:04;39.17;;;22.10;;
21432;SDS011;18592;49.708;10.900;2024-02-21T03:25:04;41.97;;;22.92;;
21432;SDS011;18592;49.708;10.900;2024-02-21T03:27:05;43.67;;;25.05;;
21432;SDS011;18592;49.708;10.900;2024-02-21T03:29:05;38.13;;;25.15;;
21432;SDS011;18592;49.708;10.900;2024-02-21T03:41:55;24.88;;;14.80;;
21432;SDS011;18592;49.708;10.900;2024-02-21T03:43:55;33.30;;;17.80;;
21432;SDS011;18592;49.708;10.900;2024-02-21T03:45:55;29.05;;;17.77;;
21432;SDS011;18592;49.708;10.900;2024-02-21T03:47:56;26.15;;;15.23;;
21432;SDS011;18592;49.708;10.900;2024-02-21T03:50:00;20.50;;;12.10;;
21432;SDS011;18592;49.708;10.900;2024-02-21T03:52:00;15.75;;;9.50;;
21432;SDS011;18592;49.708;10.900;2024-02-21T03:54:01;18.40;;;10.00;;
21432;SDS011;18592;49.708;10.900;2024-02-21T03:56:01;21.42;;;12.70;;
21432;SDS011;18592;49.708;10.900;2024-02-21T03:58:04;21.30;;;11.40;;
21432;SDS011;18592;49.708;10.900;2024-02-21T04:00:04;23.17;;;12.32;;
21432;SDS011;18592;49.708;10.900;2024-02-21T04:02:07;22.27;;;12.27;;
21432;SDS011;18592;49.708;10.900;2024-02-21T04:04:09;22.25;;;11.05;;
21432;SDS011;18592;49.708;10.900;2024-02-21T04:06:10;20.15;;;10.50;;
21432;SDS011;18592;49.708;10.900;2024-02-21T04:08:11;23.15;;;12.02;;
21432;SDS011;18592;49.708;10.900;2024-02-21T04:10:11;22.13;;;12.07;;
21432;SDS011;18592;49.708;10.900;2024-02-21T04:12:18;18.50;;;10.70;;
21432;SDS011;18592;49.708;10.900;2024-02-21T04:14:18;22.40;;;12.30;;
21432;SDS011;18592;49.708;10.900;2024-02-21T04:16:32;25.50;;;13.10;;
21432;SDS011;18592;49.708;10.900;2024-02-21T04:18:32;25.63;;;13.77;;
21432;SDS011;18592;49.708;10.900;2024-02-21T04:20:33;21.52;;;12.52;;
21432;SDS011;18592;49.708;10.900;2024-02-21T04:22:34;22.42;;;13.02;;
21432;SDS011;18592;49.708;10.900;2024-02-21T04:24:34;20.23;;;13.20;;
21432;SDS011;18592;49.708;10.900;2024-02-21T04:26:35;24.55;;;12.25;;
21432;SDS011;18592;49.708;10.900;2024-02-21T04:28:35;19.88;;;11.43;;
21432;SDS011;18592;49.708;10.900;2024-02-21T04:30:35;17.92;;;10.05;;
21432;SDS011;18592;49.708;10.900;2024-02-21T04:32:36;16.42;;;8.32;;
21432;SDS011;18592;49.708;10.900;2024-02-21T04:34:40;21.42;;;11.43;;
21432;SDS011;18592;49.708;10.900;2024-02-21T04:36:41;28.17;;;16.02;;
21432;SDS011;18592;49.708;10.900;2024-02-21T04:38:43;31.13;;;17.80;;
21432;SDS011;18592;49.708;10.900;2024-02-21T04:40:43;28.42;;;16.17;;
21432;SDS011;18592;49.708;10.900;2024-02-21T04:42:44;28.75;;;17.88;;
21432;SDS011;18592;49.708;10.900;2024-02-21T04:44:44;31.50;;;16.60;;
21432;SDS011;18592;49.708;10.900;2024-02-21T04:46:45;30.33;;;16.27;;
21432;SDS011;18592;49.708;10.900;2024-02-21T04:48:45;25.42;;;15.20;;
21432;SDS011;18592;49.708;10.900;2024-02-21T04:50:46;23.67;;;12.93;;
21432;SDS011;18592;49.708;10.900;2024-02-21T04:52:46;20.77;;;12.10;;
21432;SDS011;18592;49.708;10.900;2024-02-21T04:54:53;31.45;;;16.92;;
21432;SDS011;18592;49.708;10.900;2024-02-21T04:56:53;28.55;;;17.00;;
21432;SDS011;18592;49.708;10.900;2024-02-21T04:58:54;31.23;;;18.08;;
21432;SDS011;18592;49.708;10.900;2024-02-21T05:00:54;27.30;;;16.65;;
21432;SDS011;18592;49.708;10.900;2024-02-21T05:02:55;25.60;;;13.77;;
21432;SDS011;18592;49.708;10.900;2024-02-21T05:04:57;24.08;;;13.60;;
21432;SDS011;18592;49.708;10.900;2024-02-21T05:07:13;19.17;;;11.85;;
21432;SDS011;18592;49.708;10.900;2024-02-21T05:09:28;18.20;;;10.85;;
21432;SDS011;18592;49.708;10.900;2024-02-21T05:11:28;16.02;;;10.00;;
21432;SDS011;18592;49.708;10.900;2024-02-21T05:13:29;19.48;;;11.57;;
21432;SDS011;18592;49.708;10.900;2024-02-21T05:15:29;24.20;;;12.63;;
21432;SDS011;18592;49.708;10.900;2024-02-21T05:17:29;21.75;;;10.82;;
21432;SDS011;18592;49.708;10.900;2024-02-21T05:19:30;21.15;;;12.25;;
21432;SDS011;18592;49.708;10.900;2024-02-21T05:21:33;20.23;;;12.02;;
21432;SDS011;18592;49.708;10.900;2024-02-21T05:23:41;25.38;;;14.73;;
21432;SDS011;18592;49.708;10.900;2024-02-21T05:25:42;24.48;;;13.68;;
21432;SDS011;18592;49.708;10.900;2024-02-21T05:27:44;22.42;;;12.82;;
21432;SDS011;18592;49.708;10.900;2024-02-21T05:29:45;19.48;;;11.88;;
21432;SDS011;18592;49.708;10.900;2024-02-21T05:33:54;22.73;;;13.50;;
21432;SDS011;18592;49.708;10.900;2024-02-21T05:35:57;20.13;;;12.25;;
21432;SDS011;18592;49.708;10.900;2024-02-21T05:37:58;23.10;;;12.68;;
21432;SDS011;18592;49.708;10.900;2024-02-21T05:39:59;22.40;;;13.68;;
21432;SDS011;18592;49.708;10.900;2024-02-21T05:41:59;20.13;;;11.40;;
21432;SDS011;18592;49.708;10.900;2024-02-21T05:44:00;19.30;;;10.73;;
21432;SDS011;18592;49.708;10.900;2024-02-21T05:46:00;21.70;;;11.65;;
21432;SDS011;18592;49.708;10.900;2024-02-21T05:48:15;20.73;;;12.55;;
21432;SDS011;18592;49.708;10.900;2024-02-21T05:50:16;20.45;;;11.55;;
21432;SDS011;18592;49.708;10.900;2024-02-21T05:52:17;18.30;;;10.82;;
21432;SDS011;18592;49.708;10.900;2024-02-21T05:54:33;17.77;;;11.02;;
21432;SDS011;18592;49.708;10.900;2024-02-21T05:56:34;21.95;;;12.15;;
21432;SDS011;18592;49.708;10.900;2024-02-21T05:58:34;19.30;;;11.32;;
21432;SDS011;18592;49.708;10.900;2024-02-21T06:00:34;17.95;;;10.57;;
21432;SDS011;18592;49.708;10.900;2024-02-21T06:02:35;19.73;;;11.65;;
21432;SDS011;18592;49.708;10.900;2024-02-21T06:04:35;21.38;;;11.90;;
21432;SDS011;18592;49.708;10.900;2024-02-21T06:06:36;24.58;;;14.25;;
21432;SDS011;18592;49.708;10.900;2024-02-21T06:08:36;24.35;;;13.75;;
21432;SDS011;18592;49.708;10.900;2024-02-21T06:10:36;19.73;;;11.52;;
21432;SDS011;18592;49.708;10.900;2024-02-21T06:12:37;24.27;;;13.57;;
21432;SDS011;18592;49.708;10.900;2024-02-21T06:14:39;21.13;;;12.35;;
21432;SDS011;18592;49.708;10.900;2024-02-21T06:16:40;19.40;;;12.05;;
21432;SDS011;18592;49.708;10.900;2024-02-21T06:18:55;20.15;;;11.95;;
21432;SDS011;18592;49.708;10.900;2024-02-21T06:20:57;21.85;;;11.35;;
21432;SDS011;18592;49.708;10.900;2024-02-21T06:23:06;15.85;;;10.30;;
21432;SDS011;18592;49.708;10.900;2024-02-21T06:25:08;15.65;;;9.10;;
21432;SDS011;18592;49.708;10.900;2024-02-21T06:27:09;14.43;;;8.50;;
21432;SDS011;18592;49.708;10.900;2024-02-21T06:29:09;14.13;;;7.78;;
21432;SDS011;18592;49.708;10.900;2024-02-21T06:31:09;14.70;;;7.40;;
21432;SDS011;18592;49.708;10.900;2024-02-21T06:33:10;13.55;;;7.00;;
21432;SDS011;18592;49.708;10.900;2024-02-21T06:35:11;14.23;;;7.70;;
21432;SDS011;18592;49.708;10.900;2024-02-21T06:37:21;16.95;;;8.52;;
21432;SDS011;18592;49.708;10.900;2024-02-21T06:39:21;15.13;;;8.02;;
21432;SDS011;18592;49.708;10.900;2024-02-21T06:41:23;11.77;;;7.20;;
21432;SDS011;18592;49.708;10.900;2024-02-21T06:43:38;15.13;;;7.47;;
21432;SDS011;18592;49.708;10.900;2024-02-21T06:45:39;15.65;;;8.10;;
21432;SDS011;18592;49.708;10.900;2024-02-21T06:47:39;14.20;;;6.43;;
21432;SDS011;18592;49.708;10.900;2024-02-21T06:49:39;11.27;;;7.00;;
21432;SDS011;18592;49.708;10.900;2024-02-21T06:51:43;12.05;;;6.72;;
21432;SDS011;18592;49.708;10.900;2024-02-21T06:53:43;12.35;;;7.18;;
21432;SDS011;18592;49.708;10.900;2024-02-21T06:55:44;12.57;;;7.18;;
21432;SDS011;18592;49.708;10.900;2024-02-21T06:57:44;12.90;;;6.68;;
21432;SDS011;18592;49.708;10.900;2024-02-21T06:59:46;9.85;;;6.25;;
21432;SDS011;18592;49.708;10.900;2024-02-21T07:02:04;11.32;;;7.22;;
21432;SDS011;18592;49.708;10.900;2024-02-21T07:04:04;13.70;;;7.50;;
21432;SDS011;18592;49.708;10.900;2024-02-21T07:06:04;11.70;;;6.97;;
21432;SDS011;18592;49.708;10.900;2024-02-21T07:08:05;12.18;;;7.32;;
21432;SDS011;18592;49.708;10.900;2024-02-21T07:10:06;12.20;;;7.00;;
21432;SDS011;18592;49.708;10.900;2024-02-21T07:12:07;14.52;;;7.68;;
21432;SDS011;18592;49.708;10.900;2024-02-21T07:14:08;14.35;;;7.30;;
21432;SDS011;18592;49.708;10.900;2024-02-21T07:16:08;14.35;;;6.55;;
21432;SDS011;18592;49.708;10.900;2024-02-21T07:18:09;14.60;;;6.85;;
21432;SDS011;18592;49.708;10.900;2024-02-21T07:20:38;11.90;;;6.50;;
21432;SDS011;18592;49.708;10.900;2024-02-21T07:22:39;14.38;;;7.55;;
21432;SDS011;18592;49.708;10.900;2024-02-21T07:24:41;13.85;;;7.30;;
21432;SDS011;18592;49.708;10.900;2024-02-21T07:26:50;15.68;;;7.65;;
21432;SDS011;18592;49.708;10.900;2024-02-21T07:29:01;14.70;;;7.40;;
21432;SDS011;18592;49.708;10.900;2024-02-21T07:31:03;17.00;;;7.43;;
21432;SDS011;18592;49.708;10.900;2024-02-21T07:33:18;15.35;;;8.25;;
21432;SDS011;18592;49.708;10.900;2024-02-21T07:35:27;15.70;;;8.07;;
21432;SDS011;18592;49.708;10.900;2024-02-21T07:48:21;13.18;;;6.53;;
21432;SDS011;18592;49.708;10.900;2024-02-21T07:50:24;17.85;;;8.38;;
21432;SDS011;18592;49.708;10.900;2024-02-21T07:52:25;17.63;;;8.05;;
21432;SDS011;18592;49.708;10.900;2024-02-21T07:54:25;15.02;;;7.13;;
21432;SDS011;18592;49.708;10.900;2024-02-21T07:56:27;11.60;;;6.88;;
21432;SDS011;18592;49.708;10.900;2024-02-21T07:58:27;12.23;;;6.20;;
21432;SDS011;18592;49.708;10.900;2024-02-21T08:00:38;12.50;;;5.93;;
21432;SDS011;18592;49.708;10.900;2024-02-21T08:02:39;12.80;;;5.57;;
21432;SDS011;18592;49.708;10.900;2024-02-21T08:04:53;11.40;;;5.65;;
21432;SDS011;18592;49.708;10.900;2024-02-21T08:06:54;10.52;;;5.05;;
21432;SDS011;18592;49.708;10.900;2024-02-21T08:08:55;10.85;;;5.20;;
21432;SDS011;18592;49.708;10.900;2024-02-21T08:10:57;9.65;;;5.13;;
21432;SDS011;18592;49.708;10.900;2024-02-21T08:12:57;10.57;;;5.43;;
21432;SDS011;18592;49.708;10.900;2024-02-21T08:14:58;9.38;;;4.75;;
21432;SDS011;18592;49.708;10.900;2024-02-21T08:16:58;11.32;;;5.18;;
21432;SDS011;18592;49.708;10.900;2024-02-21T08:19:01;6.78;;;3.65;;
21432;SDS011;18592;49.708;10.900;2024-02-21T08:21:04;4.90;;;3.53;;
21432;SDS011;18592;49.708;10.900;2024-02-21T08:23:04;8.30;;;3.90;;
21432;SDS011;18592;49.708;10.900;2024-02-21T08:25:05;8.43;;;4.03;;
21432;SDS011;18592;49.708;10.900;2024-02-21T08:27:05;9.68;;;4.13;;
21432;SDS011;18592;49.708;10.900;2024-02-21T08:29:06;9.40;;;4.28;;
21432;SDS011;18592;49.708;10.900;2024-02-21T08:31:06;7.88;;;4.30;;
21432;SDS011;18592;49.708;10.900;2024-02-21T08:33:06;8.93;;;4.07;;
21432;SDS011;18592;49.708;10.900;2024-02-21T08:35:07;6.43;;;3.67;;
21432;SDS011;18592;49.708;10.900;2024-02-21T08:37:08;6.50;;;3.70;;
21432;SDS011;18592;49.708;10.900;2024-02-21T08:39:10;8.18;;;4.13;;
21432;SDS011;18592;49.708;10.900;2024-02-21T08:41:11;9.48;;;4.00;;
21432;SDS011;18592;49.708;10.900;2024-02-21T08:43:15;8.75;;;4.00;;
21432;SDS011;18592;49.708;10.900;2024-02-21T08:45:15;7.32;;;3.63;;
21432;SDS011;18592;49.708;10.900;2024-02-21T08:47:16;7.88;;;4.05;;
21432;SDS011;18592;49.708;10.900;2024-02-21T08:49:18;7.45;;;3.97;;
21432;SDS011;18592;49.708;10.900;2024-02-21T08:51:18;10.00;;;3.55;;
21432;SDS011;18592;49.708;10.900;2024-02-21T08:53:19;5.88;;;3.10;;
21432;SDS011;18592;49.708;10.900;2024-02-21T08:55:20;6.65;;;3.10;;
21432;SDS011;18592;49.708;10.900;2024-02-21T08:57:20;8.13;;;3.40;;
21432;SDS011;18592;49.708;10.900;2024-02-21T08:59:29;7.03;;;3.03;;
21432;SDS011;18592;49.708;10.900;2024-02-21T09:01:29;5.38;;;2.92;;
21432;SDS011;18592;49.708;10.900;2024-02-21T09:03:38;6.45;;;2.72;;
21432;SDS011;18592;49.708;10.900;2024-02-21T09:05:52;6.78;;;3.05;;
21432;SDS011;18592;49.708;10.900;2024-02-21T09:08:08;8.48;;;3.08;;
21432;SDS011;18592;49.708;10.900;2024-02-21T09:10:09;5.93;;;2.38;;
21432;SDS011;18592;49.708;10.900;2024-02-21T09:12:09;5.38;;;2.70;;
21432;SDS011;18592;49.708;10.900;2024-02-21T09:14:10;4.55;;;2.35;;
21432;SDS011;18592;49.708;10.900;2024-02-21T09:16:10;6.80;;;2.70;;
21432;SDS011;18592;49.708;10.900;2024-02-21T09:18:10;5.90;;;2.83;;
21432;SDS011;18592;49.708;10.900;2024-02-21T09:20:11;9.70;;;3.13;;
21432;SDS011;18592;49.708;10.900;2024-02-21T09:22:12;4.20;;;2.67;;
21432;SDS011;18592;49.708;10.900;2024-02-21T09:24:12;6.68;;;3.10;;
21432;SDS011;18592;49.708;10.900;2024-02-21T09:26:12;9.00;;;3.47;;
21432;SDS011;18592;49.708;10.900;2024-02-21T09:28:21;8.00;;;3.05;;
21432;SDS011;18592;49.708;10.900;2024-02-21T09:30:21;7.85;;;2.90;;
21432;SDS011;18592;49.708;10.900;2024-02-21T09:32:21;6.85;;;2.78;;
21432;SDS011;18592;49.708;10.900;2024-02-21T09:34:22;8.18;;;2.83;;
21432;SDS011;18592;49.708;10.900;2024-02-21T09:36:22;8.27;;;3.08;;
21432;SDS011;18592;49.708;10.900;2024-02-21T09:38:22;5.68;;;2.80;;
21432;SDS011;18592;49.708;10.900;2024-02-21T09:40:23;7.75;;;3.17;;
21432;SDS011;18592;49.708;10.900;2024-02-21T09:42:27;7.68;;;2.70;;
21432;SDS011;18592;49.708;10.900;2024-02-21T09:44:37;7.40;;;3.25;;
21432;SDS011;18592;49.708;10.900;2024-02-21T09:46:49;7.35;;;3.35;;
21432;SDS011;18592;49.708;10.900;2024-02-21T09:51:21;5.53;;;2.88;;
21432;SDS011;18592;49.708;10.900;2024-02-21T09:53:24;6.95;;;2.65;;
21432;SDS011;18592;49.708;10.900;2024-02-21T09:55:24;5.60;;;2.92;;
21432;SDS011;18592;49.708;10.900;2024-02-21T09:57:27;6.65;;;2.50;;
21432;SDS011;18592;49.708;10.900;2024-02-21T09:59:28;6.78;;;2.55;;
21432;SDS011;18592;49.708;10.900;2024-02-21T10:01:31;6.55;;;2.97;;
21432;SDS011;18592;49.708;10.900;2024-02-21T10:03:33;7.15;;;2.92;;
21432;SDS011;18592;49.708;10.900;2024-02-21T10:05:48;7.15;;;2.95;;
21432;SDS011;18592;49.708;10.900;2024-02-21T10:07:52;7.18;;;2.38;;
21432;SDS011;18592;49.708;10.900;2024-02-21T10:10:05;8.30;;;3.13;;
21432;SDS011;18592;49.708;10.900;2024-02-21T10:12:09;6.32;;;2.65;;
21432;SDS011;18592;49.708;10.900;2024-02-21T10:14:11;4.70;;;2.53;;
21432;SDS011;18592;49.708;10.900;2024-02-21T10:16:11;6.35;;;2.65;;
21432;SDS011;18592;49.708;10.900;2024-02-21T10:18:11;7.38;;;2.58;;
21432;SDS011;18592;49.708;10.900;2024-02-21T10:20:12;6.95;;;2.47;;
21432;SDS011;18592;49.708;10.900;2024-02-21T10:22:14;6.55;;;2.33;;
21432;SDS011;18592;49.708;10.900;2024-02-21T10:24:15;6.90;;;2.83;;
21432;SDS011;18592;49.708;10.900;2024-02-21T10:26:26;9.15;;;2.20;;
21432;SDS011;18592;49.708;10.900;2024-02-21T10:28:26;4.78;;;2.17;;
21432;SDS011;18592;49.708;10.900;2024-02-21T10:30:27;6.47;;;1.98;;
21432;SDS011;18592;49.708;10.900;2024-02-21T10:32:52;7.53;;;2.58;;
21432;SDS011;18592;49.708;10.900;2024-02-21T10:35:03;7.72;;;2.65;;
21432;SDS011;18592;49.708;10.900;2024-02-21T10:37:09;8.43;;;2.85;;
21432;SDS011;18592;49.708;10.900;2024-02-21T10:39:10;5.85;;;2.53;;
21432;SDS011;18592;49.708;10.900;2024-02-21T10:41:10;9.07;;;2.58;;
21432;SDS011;18592;49.708;10.900;2024-02-21T10:43:14;4.70;;;2.22;;
21432;SDS011;18592;49.708;10.900;2024-02-21T10:45:22;5.82;;;2.05;;
21432;SDS011;18592;49.708;10.900;2024-02-21T10:47:24;6.07;;;2.40;;
21432;SDS011;18592;49.708;10.900;2024-02-21T10:49:26;5.85;;;2.30;;
21432;SDS011;18592;49.708;10.900;2024-02-21T10:51:29;6.05;;;2.10;;
21432;SDS011;18592;49.708;10.900;2024-02-21T10:55:44;6.20;;;2.20;;
21432;SDS011;18592;49.708;10.900;2024-02-21T10:57:56;3.55;;;1.77;;
21432;SDS011;18592;49.708;10.900;2024-02-21T10:59:58;4.47;;;1.77;;
21432;SDS011;18592;49.708;10.900;2024-02-21T11:01:59;4.22;;;2.03;;
21432;SDS011;18592;49.708;10.900;2024-02-21T11:04:01;4.85;;;2.15;;
21432;SDS011;18592;49.708;10.900;2024-02-21T11:06:03;5.97;;;1.85;;
21432;SDS011;18592;49.708;10.900;2024-02-21T11:08:05;4.70;;;1.92;;
21432;SDS011;18592;49.708;10.900;2024-02-21T11:10:19;6.68;;;2.13;;
21432;SDS011;18592;49.708;10.900;2024-02-21T11:12:35;4.60;;;1.85;;
21432;SDS011;18592;49.708;10.900;2024-02-21T11:25:21;5.80;;;1.92;;
21432;SDS011;18592;49.708;10.900;2024-02-21T11:27:22;5.55;;;1.75;;
21432;SDS011;18592;49.708;10.900;2024-02-21T11:29:26;4.80;;;1.70;;
21432;SDS011;18592;49.708;10.900;2024-02-21T11:31:40;6.40;;;2.00;;
21432;SDS011;18592;49.708;10.900;2024-02-21T11:33:42;5.13;;;2.13;;
21432;SDS011;18592;49.708;10.900;2024-02-21T11:35:43;3.58;;;1.60;;
21432;SDS011;18592;49.708;10.900;2024-02-21T11:37:46;4.75;;;1.70;;
21432;SDS011;18592;49.708;10.900;2024-02-21T11:40:00;7.18;;;2.03;;
21432;SDS011;18592;49.708;10.900;2024-02-21T11:42:03;7.07;;;1.85;;
21432;SDS011;18592;49.708;10.900;2024-02-21T11:44:07;4.40;;;1.90;;
21432;SDS011;18592;49.708;10.900;2024-02-21T11:46:17;6.20;;;1.98;;
21432;SDS011;18592;49.708;10.900;2024-02-21T11:48:18;7.03;;;2.38;;
21432;SDS011;18592;49.708;10.900;2024-02-21T11:50:20;4.68;;;1.88;;
21432;SDS011;18592;49.708;10.900;2024-02-21T11:52:24;7.47;;;2.10;;
21432;SDS011;18592;49.708;10.900;2024-02-21T11:54:25;4.35;;;1.85;;
21432;SDS011;18592;49.708;10.900;2024-02-21T11:56:26;4.70;;;2.15;;
21432;SDS011;18592;49.708;10.900;2024-02-21T11:58:26;5.47;;;1.77;;
21432;SDS011;18592;49.708;10.900;2024-02-21T12:00:26;4.43;;;1.88;;
21432;SDS011;18592;49.708;10.900;2024-02-21T12:02:27;4.35;;;1.60;;
21432;SDS011;18592;49.708;10.900;2024-02-21T12:04:28;4.25;;;1.55;;
21432;SDS011;18592;49.708;10.900;2024-02-21T12:06:32;4.80;;;1.75;;
21432;SDS011;18592;49.708;10.900;2024-02-21T12:08:42;3.63;;;1.50;;
21432;SDS011;18592;49.708;10.900;2024-02-21T12:10:44;2.88;;;1.50;;
21432;SDS011;18592;49.708;10.900;2024-02-21T12:12:44;5.18;;;1.55;;
21432;SDS011;18592;49.708;10.900;2024-02-21T12:14:44;3.80;;;1.65;;
21432;SDS011;18592;49.708;10.900;2024-02-21T12:16:45;4.68;;;1.77;;
21432;SDS011;18592;49.708;10.900;2024-02-21T12:18:47;6.18;;;1.80;;
21432;SDS011;18592;49.708;10.900;2024-02-21T12:20:48;3.85;;;1.30;;
21432;SDS011;18592;49.708;10.900;2024-02-21T12:22:49;4.47;;;1.80;;
21432;SDS011;18592;49.708;10.900;2024-02-21T12:24:50;4.50;;;1.65;;
21432;SDS011;18592;49.708;10.900;2024-02-21T12:26:52;3.95;;;1.40;;
21432;SDS011;18592;49.708;10.900;2024-02-21T12:28:53;3.83;;;1.60;;
21432;SDS011;18592;49.708;10.900;2024-02-21T12:41:36;4.97;;;1.60;;
21432;SDS011;18592;49.708;10.900;2024-02-21T12:43:47;4.40;;;1.90;;
21432;SDS011;18592;49.708;10.900;2024-02-21T12:45:47;4.80;;;1.80;;